Aérodrome :
LOGIN :

S'inscrire | Disclaimer

   EN    FR    IT 

 










Légende :    VFR   VFR Marginal   IFR   IFR Intensif   IFR Très Intensif
Visi : 
Plafond : 
>= 8 km
>= 3000ft
5 à 8 km
1000 à 3000 ft
1500m à 5 km
500 à 1000 ft
800 à 1500m
200 à 500 ft
< 800m
< 200 ft
Symboles :   Orages  Brouillard  Fortes neiges  Fortes précipitations  Vent > 20 kt
SIGMETs :   Divers  Orages  Givrage  Turbulence  Onde Orograph.  Cendres Volcan.






- Altitude de l'aérodrome : 39 ft


ETNH - Hohn AB

DERNIER METAR :
  • 180720Z 25018G32KT 9999 -SHRA SCT019CB BKN035 05/01 Q1010 BLU BLU+ TEMPO YLO

METARs EXPIRÉS :
  • 180620Z 25012KT 9999 FEW020TCU 05/01 Q1009 BLU+BLU+ TEMPO YLO
  • 180520Z 24010KT 9999 FEW060 05/02 Q1009 BLU+BLU+ TEMPO YLO

TAF TAF ETNH
Valide du 18 à 06h jusqu'au 18 à 18h UTC


180520Z 1806/1818 24015G30KT 9999 NSW SCT030 SCT200
TEMPO 1806/1818 25018G35KT 3000 SHRA BKN010 BKN020CB
PROB30 1806/1813 25020G40KT 2000 TSRAGS BKN007 BKN015CB BY ETGL



MET'MAP, la Météo Aéronautique d'un coup d'oeil ! - Copyright ORBIFLY Décembre 2007 - Disclaimer

ORBIFLY MET'MAP TEAM :

Programmation & Développement : Alexandra Zaïnal
Sur une idée originale de : Baudouin d'Aumeries
Assistance à la programmation : Marc-Olivier Méhu
Soutien technique & logistique : Manuel Goepfert

Contact : metmap@orbifly.com




SOURCES & CREDITS :

   NOAA